sensor_id;sensor_type;location;lat;lon;timestamp;P1;durP1;ratioP1;P2;durP2;ratioP2
47153;SDS011;32907;41.412;2.164;2024-02-26T00:02:19;14.68;;;6.65;;
47153;SDS011;32907;41.412;2.164;2024-02-26T00:04:47;15.68;;;6.32;;
47153;SDS011;32907;41.412;2.164;2024-02-26T00:07:17;14.10;;;6.63;;
47153;SDS011;32907;41.412;2.164;2024-02-26T00:09:45;13.43;;;6.00;;
47153;SDS011;32907;41.412;2.164;2024-02-26T00:12:13;15.75;;;6.53;;
47153;SDS011;32907;41.412;2.164;2024-02-26T00:14:41;13.80;;;5.90;;
47153;SDS011;32907;41.412;2.164;2024-02-26T00:17:09;15.07;;;5.82;;
47153;SDS011;32907;41.412;2.164;2024-02-26T00:19:37;12.50;;;4.68;;
47153;SDS011;32907;41.412;2.164;2024-02-26T00:22:05;10.57;;;4.28;;
47153;SDS011;32907;41.412;2.164;2024-02-26T00:24:34;10.80;;;4.28;;
47153;SDS011;32907;41.412;2.164;2024-02-26T00:27:02;9.40;;;3.65;;
47153;SDS011;32907;41.412;2.164;2024-02-26T00:29:31;6.72;;;3.17;;
47153;SDS011;32907;41.412;2.164;2024-02-26T00:31:59;6.40;;;3.13;;
47153;SDS011;32907;41.412;2.164;2024-02-26T00:34:27;7.75;;;3.65;;
47153;SDS011;32907;41.412;2.164;2024-02-26T00:36:56;7.28;;;3.17;;
47153;SDS011;32907;41.412;2.164;2024-02-26T00:39:24;8.05;;;3.38;;
47153;SDS011;32907;41.412;2.164;2024-02-26T00:41:52;6.95;;;3.05;;
47153;SDS011;32907;41.412;2.164;2024-02-26T00:44:21;9.45;;;3.00;;
47153;SDS011;32907;41.412;2.164;2024-02-26T00:46:49;7.97;;;3.08;;
47153;SDS011;32907;41.412;2.164;2024-02-26T00:49:17;6.85;;;2.33;;
47153;SDS011;32907;41.412;2.164;2024-02-26T00:51:46;8.95;;;2.95;;
47153;SDS011;32907;41.412;2.164;2024-02-26T00:54:14;7.07;;;2.40;;
47153;SDS011;32907;41.412;2.164;2024-02-26T00:56:42;6.72;;;2.50;;
47153;SDS011;32907;41.412;2.164;2024-02-26T00:59:11;6.30;;;2.70;;
47153;SDS011;32907;41.412;2.164;2024-02-26T01:01:39;7.05;;;3.22;;
47153;SDS011;32907;41.412;2.164;2024-02-26T01:04:07;6.38;;;2.80;;
47153;SDS011;32907;41.412;2.164;2024-02-26T01:06:35;6.82;;;2.90;;
47153;SDS011;32907;41.412;2.164;2024-02-26T01:09:04;7.03;;;2.38;;
47153;SDS011;32907;41.412;2.164;2024-02-26T01:11:32;5.32;;;2.10;;
47153;SDS011;32907;41.412;2.164;2024-02-26T01:14:00;6.45;;;2.50;;
47153;SDS011;32907;41.412;2.164;2024-02-26T01:16:28;6.65;;;2.60;;
47153;SDS011;32907;41.412;2.164;2024-02-26T01:18:57;5.22;;;3.00;;
47153;SDS011;32907;41.412;2.164;2024-02-26T01:21:25;6.25;;;2.58;;
47153;SDS011;32907;41.412;2.164;2024-02-26T01:23:56;7.65;;;3.08;;
47153;SDS011;32907;41.412;2.164;2024-02-26T01:26:25;7.03;;;2.42;;
47153;SDS011;32907;41.412;2.164;2024-02-26T01:28:53;7.45;;;2.97;;
47153;SDS011;32907;41.412;2.164;2024-02-26T01:31:23;7.55;;;2.92;;
47153;SDS011;32907;41.412;2.164;2024-02-26T01:33:51;4.93;;;2.50;;
47153;SDS011;32907;41.412;2.164;2024-02-26T01:36:20;5.05;;;2.60;;
47153;SDS011;32907;41.412;2.164;2024-02-26T01:38:48;6.28;;;2.75;;
47153;SDS011;32907;41.412;2.164;2024-02-26T01:41:17;5.97;;;2.70;;
47153;SDS011;32907;41.412;2.164;2024-02-26T01:43:45;5.13;;;2.50;;
47153;SDS011;32907;41.412;2.164;2024-02-26T01:46:14;6.05;;;2.33;;
47153;SDS011;32907;41.412;2.164;2024-02-26T01:48:42;6.85;;;2.88;;
47153;SDS011;32907;41.412;2.164;2024-02-26T01:51:13;4.90;;;2.30;;
47153;SDS011;32907;41.412;2.164;2024-02-26T01:53:43;5.15;;;2.30;;
47153;SDS011;32907;41.412;2.164;2024-02-26T01:56:12;7.15;;;2.47;;
47153;SDS011;32907;41.412;2.164;2024-02-26T01:58:41;6.10;;;2.63;;
47153;SDS011;32907;41.412;2.164;2024-02-26T02:01:12;4.97;;;2.08;;
47153;SDS011;32907;41.412;2.164;2024-02-26T02:03:43;3.70;;;2.30;;
47153;SDS011;32907;41.412;2.164;2024-02-26T02:06:12;5.80;;;2.10;;
47153;SDS011;32907;41.412;2.164;2024-02-26T02:08:42;5.90;;;1.92;;
47153;SDS011;32907;41.412;2.164;2024-02-26T02:11:10;6.53;;;2.10;;
47153;SDS011;32907;41.412;2.164;2024-02-26T02:13:42;6.70;;;2.00;;
47153;SDS011;32907;41.412;2.164;2024-02-26T02:16:10;5.45;;;2.25;;
47153;SDS011;32907;41.412;2.164;2024-02-26T02:18:39;7.40;;;2.45;;
47153;SDS011;32907;41.412;2.164;2024-02-26T02:21:07;6.88;;;2.03;;
47153;SDS011;32907;41.412;2.164;2024-02-26T02:23:35;5.07;;;1.95;;
47153;SDS011;32907;41.412;2.164;2024-02-26T02:26:03;6.97;;;2.38;;
47153;SDS011;32907;41.412;2.164;2024-02-26T02:28:32;5.30;;;2.22;;
47153;SDS011;32907;41.412;2.164;2024-02-26T02:31:00;6.13;;;2.22;;
47153;SDS011;32907;41.412;2.164;2024-02-26T02:33:29;5.50;;;2.05;;
47153;SDS011;32907;41.412;2.164;2024-02-26T02:35:57;4.00;;;2.00;;
47153;SDS011;32907;41.412;2.164;2024-02-26T02:38:26;3.25;;;1.85;;
47153;SDS011;32907;41.412;2.164;2024-02-26T02:40:57;4.45;;;1.85;;
47153;SDS011;32907;41.412;2.164;2024-02-26T02:43:25;3.75;;;1.90;;
47153;SDS011;32907;41.412;2.164;2024-02-26T02:45:53;4.43;;;1.90;;
47153;SDS011;32907;41.412;2.164;2024-02-26T02:48:21;4.22;;;1.95;;
47153;SDS011;32907;41.412;2.164;2024-02-26T02:50:50;5.85;;;1.98;;
47153;SDS011;32907;41.412;2.164;2024-02-26T02:53:18;4.75;;;1.90;;
47153;SDS011;32907;41.412;2.164;2024-02-26T02:55:46;4.25;;;1.85;;
47153;SDS011;32907;41.412;2.164;2024-02-26T02:58:14;3.47;;;1.50;;
47153;SDS011;32907;41.412;2.164;2024-02-26T03:00:43;3.97;;;1.75;;
47153;SDS011;32907;41.412;2.164;2024-02-26T03:03:11;4.80;;;1.75;;
47153;SDS011;32907;41.412;2.164;2024-02-26T03:05:40;3.20;;;1.85;;
47153;SDS011;32907;41.412;2.164;2024-02-26T03:08:08;6.13;;;2.00;;
47153;SDS011;32907;41.412;2.164;2024-02-26T03:10:36;4.60;;;1.70;;
47153;SDS011;32907;41.412;2.164;2024-02-26T03:13:05;4.28;;;1.63;;
47153;SDS011;32907;41.412;2.164;2024-02-26T03:15:34;6.40;;;1.85;;
47153;SDS011;32907;41.412;2.164;2024-02-26T03:18:02;5.32;;;1.88;;
47153;SDS011;32907;41.412;2.164;2024-02-26T03:20:31;3.83;;;1.92;;
47153;SDS011;32907;41.412;2.164;2024-02-26T03:22:59;5.03;;;1.70;;
47153;SDS011;32907;41.412;2.164;2024-02-26T03:25:27;3.00;;;1.60;;
47153;SDS011;32907;41.412;2.164;2024-02-26T03:27:55;3.75;;;1.77;;
47153;SDS011;32907;41.412;2.164;2024-02-26T03:30:23;5.28;;;1.65;;
47153;SDS011;32907;41.412;2.164;2024-02-26T03:32:52;3.85;;;1.98;;
47153;SDS011;32907;41.412;2.164;2024-02-26T03:35:21;4.32;;;1.83;;
47153;SDS011;32907;41.412;2.164;2024-02-26T03:37:49;3.85;;;1.70;;
47153;SDS011;32907;41.412;2.164;2024-02-26T03:40:20;3.17;;;1.30;;
47153;SDS011;32907;41.412;2.164;2024-02-26T03:42:48;3.08;;;1.42;;
47153;SDS011;32907;41.412;2.164;2024-02-26T03:45:16;3.60;;;1.50;;
47153;SDS011;32907;41.412;2.164;2024-02-26T03:47:45;3.88;;;1.60;;
47153;SDS011;32907;41.412;2.164;2024-02-26T03:50:13;3.33;;;1.90;;
47153;SDS011;32907;41.412;2.164;2024-02-26T03:52:41;5.15;;;2.15;;
47153;SDS011;32907;41.412;2.164;2024-02-26T03:55:10;3.50;;;2.35;;
47153;SDS011;32907;41.412;2.164;2024-02-26T03:57:38;5.55;;;2.20;;
47153;SDS011;32907;41.412;2.164;2024-02-26T04:00:06;4.50;;;2.38;;
47153;SDS011;32907;41.412;2.164;2024-02-26T04:02:38;5.55;;;2.40;;
47153;SDS011;32907;41.412;2.164;2024-02-26T04:05:15;4.97;;;2.65;;
47153;SDS011;32907;41.412;2.164;2024-02-26T04:07:44;5.95;;;2.60;;
47153;SDS011;32907;41.412;2.164;2024-02-26T04:10:12;6.13;;;2.47;;
47153;SDS011;32907;41.412;2.164;2024-02-26T04:12:41;4.68;;;2.50;;
47153;SDS011;32907;41.412;2.164;2024-02-26T04:15:10;6.13;;;2.70;;
47153;SDS011;32907;41.412;2.164;2024-02-26T04:17:39;3.92;;;2.40;;
47153;SDS011;32907;41.412;2.164;2024-02-26T04:20:08;3.58;;;2.10;;
47153;SDS011;32907;41.412;2.164;2024-02-26T04:22:41;4.38;;;2.33;;
47153;SDS011;32907;41.412;2.164;2024-02-26T04:25:09;3.63;;;1.98;;
47153;SDS011;32907;41.412;2.164;2024-02-26T04:27:37;3.72;;;1.95;;
47153;SDS011;32907;41.412;2.164;2024-02-26T04:30:06;4.18;;;1.83;;
47153;SDS011;32907;41.412;2.164;2024-02-26T04:32:35;3.83;;;2.13;;
47153;SDS011;32907;41.412;2.164;2024-02-26T04:35:04;3.42;;;1.63;;
47153;SDS011;32907;41.412;2.164;2024-02-26T04:37:32;4.53;;;2.05;;
47153;SDS011;32907;41.412;2.164;2024-02-26T04:40:01;4.30;;;2.00;;
47153;SDS011;32907;41.412;2.164;2024-02-26T04:42:30;4.10;;;1.77;;
47153;SDS011;32907;41.412;2.164;2024-02-26T04:44:58;4.45;;;1.70;;
47153;SDS011;32907;41.412;2.164;2024-02-26T04:47:26;3.50;;;1.60;;
47153;SDS011;32907;41.412;2.164;2024-02-26T04:49:54;5.35;;;1.80;;
47153;SDS011;32907;41.412;2.164;2024-02-26T04:52:23;3.72;;;1.45;;
47153;SDS011;32907;41.412;2.164;2024-02-26T04:54:51;4.15;;;1.50;;
47153;SDS011;32907;41.412;2.164;2024-02-26T04:57:19;3.50;;;1.35;;
47153;SDS011;32907;41.412;2.164;2024-02-26T04:59:47;3.75;;;1.60;;
47153;SDS011;32907;41.412;2.164;2024-02-26T05:02:15;3.58;;;1.50;;
47153;SDS011;32907;41.412;2.164;2024-02-26T05:04:43;2.85;;;1.73;;
47153;SDS011;32907;41.412;2.164;2024-02-26T05:07:11;3.35;;;1.75;;
47153;SDS011;32907;41.412;2.164;2024-02-26T05:09:41;3.55;;;2.00;;
47153;SDS011;32907;41.412;2.164;2024-02-26T05:12:11;4.25;;;2.10;;
47153;SDS011;32907;41.412;2.164;2024-02-26T05:14:39;4.85;;;2.10;;
47153;SDS011;32907;41.412;2.164;2024-02-26T05:17:07;3.97;;;2.90;;
47153;SDS011;32907;41.412;2.164;2024-02-26T05:19:36;4.80;;;3.05;;
47153;SDS011;32907;41.412;2.164;2024-02-26T05:22:04;7.88;;;3.33;;
47153;SDS011;32907;41.412;2.164;2024-02-26T05:24:32;6.78;;;3.38;;
47153;SDS011;32907;41.412;2.164;2024-02-26T05:27:00;7.20;;;3.35;;
47153;SDS011;32907;41.412;2.164;2024-02-26T05:29:29;5.82;;;2.95;;
47153;SDS011;32907;41.412;2.164;2024-02-26T05:31:57;5.50;;;2.92;;
47153;SDS011;32907;41.412;2.164;2024-02-26T05:34:26;7.53;;;2.78;;
47153;SDS011;32907;41.412;2.164;2024-02-26T05:36:55;7.50;;;2.90;;
47153;SDS011;32907;41.412;2.164;2024-02-26T05:39:23;4.47;;;2.72;;
47153;SDS011;32907;41.412;2.164;2024-02-26T05:41:51;4.65;;;2.70;;
47153;SDS011;32907;41.412;2.164;2024-02-26T05:44:20;5.03;;;2.55;;
47153;SDS011;32907;41.412;2.164;2024-02-26T05:46:50;6.18;;;2.40;;
47153;SDS011;32907;41.412;2.164;2024-02-26T05:49:18;5.57;;;2.95;;
47153;SDS011;32907;41.412;2.164;2024-02-26T05:51:46;6.28;;;3.10;;
47153;SDS011;32907;41.412;2.164;2024-02-26T05:54:15;6.30;;;3.45;;
47153;SDS011;32907;41.412;2.164;2024-02-26T05:56:43;8.48;;;4.53;;
47153;SDS011;32907;41.412;2.164;2024-02-26T05:59:11;8.13;;;4.97;;
47153;SDS011;32907;41.412;2.164;2024-02-26T06:01:39;11.38;;;5.47;;
47153;SDS011;32907;41.412;2.164;2024-02-26T06:04:07;9.43;;;6.03;;
47153;SDS011;32907;41.412;2.164;2024-02-26T06:06:35;9.75;;;5.20;;
47153;SDS011;32907;41.412;2.164;2024-02-26T06:09:06;10.02;;;6.63;;
47153;SDS011;32907;41.412;2.164;2024-02-26T06:11:34;8.77;;;6.47;;
47153;SDS011;32907;41.412;2.164;2024-02-26T06:14:02;9.10;;;5.95;;
47153;SDS011;32907;41.412;2.164;2024-02-26T06:16:31;13.45;;;4.82;;
47153;SDS011;32907;41.412;2.164;2024-02-26T06:18:59;7.72;;;4.75;;
47153;SDS011;32907;41.412;2.164;2024-02-26T06:21:28;10.65;;;5.82;;
47153;SDS011;32907;41.412;2.164;2024-02-26T06:23:56;9.00;;;5.30;;
47153;SDS011;32907;41.412;2.164;2024-02-26T06:26:26;9.25;;;5.40;;
47153;SDS011;32907;41.412;2.164;2024-02-26T06:28:56;9.55;;;4.60;;
47153;SDS011;32907;41.412;2.164;2024-02-26T06:31:24;7.10;;;3.53;;
47153;SDS011;32907;41.412;2.164;2024-02-26T06:33:55;6.18;;;3.38;;
47153;SDS011;32907;41.412;2.164;2024-02-26T06:36:23;7.13;;;3.60;;
47153;SDS011;32907;41.412;2.164;2024-02-26T06:38:53;6.43;;;2.97;;
47153;SDS011;32907;41.412;2.164;2024-02-26T06:41:22;5.50;;;3.33;;
47153;SDS011;32907;41.412;2.164;2024-02-26T06:43:55;7.78;;;5.03;;
47153;SDS011;32907;41.412;2.164;2024-02-26T06:46:25;10.57;;;6.97;;
47153;SDS011;32907;41.412;2.164;2024-02-26T06:48:53;9.13;;;6.38;;
47153;SDS011;32907;41.412;2.164;2024-02-26T06:51:22;9.82;;;5.65;;
47153;SDS011;32907;41.412;2.164;2024-02-26T06:53:51;10.13;;;5.05;;
47153;SDS011;32907;41.412;2.164;2024-02-26T06:56:19;6.55;;;4.47;;
47153;SDS011;32907;41.412;2.164;2024-02-26T06:58:48;9.55;;;4.72;;
47153;SDS011;32907;41.412;2.164;2024-02-26T07:01:16;9.80;;;4.53;;
47153;SDS011;32907;41.412;2.164;2024-02-26T07:03:45;8.85;;;4.05;;
47153;SDS011;32907;41.412;2.164;2024-02-26T07:06:14;8.57;;;3.95;;
47153;SDS011;32907;41.412;2.164;2024-02-26T07:08:42;12.50;;;5.20;;
47153;SDS011;32907;41.412;2.164;2024-02-26T07:11:11;14.10;;;7.50;;
47153;SDS011;32907;41.412;2.164;2024-02-26T07:13:39;16.38;;;8.38;;
47153;SDS011;32907;41.412;2.164;2024-02-26T07:16:09;15.20;;;7.38;;
47153;SDS011;32907;41.412;2.164;2024-02-26T07:18:40;10.60;;;6.35;;
47153;SDS011;32907;41.412;2.164;2024-02-26T07:21:09;13.27;;;5.80;;
47153;SDS011;32907;41.412;2.164;2024-02-26T07:23:39;16.95;;;4.93;;
47153;SDS011;32907;41.412;2.164;2024-02-26T07:26:07;11.40;;;4.93;;
47153;SDS011;32907;41.412;2.164;2024-02-26T07:28:35;11.57;;;4.28;;
47153;SDS011;32907;41.412;2.164;2024-02-26T07:31:04;9.82;;;6.18;;
47153;SDS011;32907;41.412;2.164;2024-02-26T07:33:32;15.27;;;10.32;;
47153;SDS011;32907;41.412;2.164;2024-02-26T07:36:00;15.80;;;9.45;;
47153;SDS011;32907;41.412;2.164;2024-02-26T07:38:28;12.82;;;6.82;;
47153;SDS011;32907;41.412;2.164;2024-02-26T07:41:09;8.85;;;5.75;;
47153;SDS011;32907;41.412;2.164;2024-02-26T07:43:37;11.52;;;4.88;;
47153;SDS011;32907;41.412;2.164;2024-02-26T07:46:05;7.72;;;4.30;;
47153;SDS011;32907;41.412;2.164;2024-02-26T07:48:34;10.82;;;4.55;;
47153;SDS011;32907;41.412;2.164;2024-02-26T07:51:02;10.73;;;3.83;;
47153;SDS011;32907;41.412;2.164;2024-02-26T07:53:32;7.47;;;4.22;;
47153;SDS011;32907;41.412;2.164;2024-02-26T07:56:00;8.18;;;3.90;;
47153;SDS011;32907;41.412;2.164;2024-02-26T07:58:28;7.20;;;4.55;;
47153;SDS011;32907;41.412;2.164;2024-02-26T08:00:56;12.02;;;7.60;;
47153;SDS011;32907;41.412;2.164;2024-02-26T08:03:24;11.15;;;7.40;;
47153;SDS011;32907;41.412;2.164;2024-02-26T08:05:53;10.05;;;5.72;;
47153;SDS011;32907;41.412;2.164;2024-02-26T08:08:21;8.32;;;4.47;;
47153;SDS011;32907;41.412;2.164;2024-02-26T08:10:50;8.23;;;4.40;;
47153;SDS011;32907;41.412;2.164;2024-02-26T08:13:18;7.93;;;4.10;;
47153;SDS011;32907;41.412;2.164;2024-02-26T08:15:46;7.55;;;3.83;;
47153;SDS011;32907;41.412;2.164;2024-02-26T08:18:14;7.80;;;3.15;;
47153;SDS011;32907;41.412;2.164;2024-02-26T08:20:44;6.35;;;2.53;;
47153;SDS011;32907;41.412;2.164;2024-02-26T08:23:12;5.15;;;2.72;;
47153;SDS011;32907;41.412;2.164;2024-02-26T08:25:40;6.78;;;3.03;;
47153;SDS011;32907;41.412;2.164;2024-02-26T08:28:09;5.03;;;2.70;;
47153;SDS011;32907;41.412;2.164;2024-02-26T08:30:40;5.30;;;2.28;;
47153;SDS011;32907;41.412;2.164;2024-02-26T08:33:09;5.78;;;2.20;;
47153;SDS011;32907;41.412;2.164;2024-02-26T08:35:38;4.60;;;2.15;;
47153;SDS011;32907;41.412;2.164;2024-02-26T08:38:06;6.28;;;2.53;;
47153;SDS011;32907;41.412;2.164;2024-02-26T08:40:34;6.55;;;2.53;;
47153;SDS011;32907;41.412;2.164;2024-02-26T08:43:03;5.20;;;2.55;;
47153;SDS011;32907;41.412;2.164;2024-02-26T08:45:31;8.18;;;4.05;;
47153;SDS011;32907;41.412;2.164;2024-02-26T08:47:59;10.18;;;5.50;;
47153;SDS011;32907;41.412;2.164;2024-02-26T08:50:28;6.07;;;4.03;;
47153;SDS011;32907;41.412;2.164;2024-02-26T08:52:56;7.45;;;3.30;;
47153;SDS011;32907;41.412;2.164;2024-02-26T08:55:25;6.32;;;3.67;;
47153;SDS011;32907;41.412;2.164;2024-02-26T08:57:53;7.50;;;4.30;;
47153;SDS011;32907;41.412;2.164;2024-02-26T09:00:21;6.57;;;3.13;;
47153;SDS011;32907;41.412;2.164;2024-02-26T09:02:50;4.78;;;2.65;;
47153;SDS011;32907;41.412;2.164;2024-02-26T09:05:18;5.82;;;2.63;;
47153;SDS011;32907;41.412;2.164;2024-02-26T09:07:46;6.40;;;2.65;;
47153;SDS011;32907;41.412;2.164;2024-02-26T09:10:15;4.45;;;2.10;;
47153;SDS011;32907;41.412;2.164;2024-02-26T09:12:43;5.05;;;2.40;;
47153;SDS011;32907;41.412;2.164;2024-02-26T09:15:11;4.50;;;2.33;;
47153;SDS011;32907;41.412;2.164;2024-02-26T09:17:40;5.50;;;2.53;;
47153;SDS011;32907;41.412;2.164;2024-02-26T09:20:08;5.60;;;2.00;;
47153;SDS011;32907;41.412;2.164;2024-02-26T09:22:37;5.85;;;2.67;;
47153;SDS011;32907;41.412;2.164;2024-02-26T09:25:05;5.22;;;2.40;;
47153;SDS011;32907;41.412;2.164;2024-02-26T09:27:34;8.73;;;3.03;;
47153;SDS011;32907;41.412;2.164;2024-02-26T09:30:03;14.75;;;5.78;;
47153;SDS011;32907;41.412;2.164;2024-02-26T09:32:32;6.95;;;3.10;;
47153;SDS011;32907;41.412;2.164;2024-02-26T09:35:01;7.82;;;3.03;;
47153;SDS011;32907;41.412;2.164;2024-02-26T09:37:29;6.10;;;2.92;;
47153;SDS011;32907;41.412;2.164;2024-02-26T09:39:58;6.53;;;2.60;;
47153;SDS011;32907;41.412;2.164;2024-02-26T09:42:26;4.22;;;1.90;;
47153;SDS011;32907;41.412;2.164;2024-02-26T09:44:55;4.43;;;1.80;;
47153;SDS011;32907;41.412;2.164;2024-02-26T09:47:31;3.80;;;1.90;;
47153;SDS011;32907;41.412;2.164;2024-02-26T09:50:00;3.63;;;1.50;;
47153;SDS011;32907;41.412;2.164;2024-02-26T09:52:30;2.70;;;1.10;;
47153;SDS011;32907;41.412;2.164;2024-02-26T09:55:03;2.35;;;1.35;;
47153;SDS011;32907;41.412;2.164;2024-02-26T09:57:32;3.03;;;1.30;;
47153;SDS011;32907;41.412;2.164;2024-02-26T10:00:02;4.57;;;1.88;;
47153;SDS011;32907;41.412;2.164;2024-02-26T10:02:35;4.28;;;1.50;;
47153;SDS011;32907;41.412;2.164;2024-02-26T10:05:06;4.68;;;2.08;;
47153;SDS011;32907;41.412;2.164;2024-02-26T10:07:37;6.60;;;1.70;;
47153;SDS011;32907;41.412;2.164;2024-02-26T10:10:06;3.80;;;1.50;;
47153;SDS011;32907;41.412;2.164;2024-02-26T10:12:36;5.32;;;1.20;;
47153;SDS011;32907;41.412;2.164;2024-02-26T10:15:04;3.10;;;1.20;;
47153;SDS011;32907;41.412;2.164;2024-02-26T10:17:33;4.68;;;1.50;;
47153;SDS011;32907;41.412;2.164;2024-02-26T10:20:12;3.83;;;1.45;;
47153;SDS011;32907;41.412;2.164;2024-02-26T10:22:49;4.07;;;0.93;;
47153;SDS011;32907;41.412;2.164;2024-02-26T10:25:20;3.70;;;1.42;;
47153;SDS011;32907;41.412;2.164;2024-02-26T10:27:49;4.45;;;1.38;;
47153;SDS011;32907;41.412;2.164;2024-02-26T10:30:18;2.50;;;1.52;;
47153;SDS011;32907;41.412;2.164;2024-02-26T10:32:47;3.88;;;1.98;;
47153;SDS011;32907;41.412;2.164;2024-02-26T10:35:17;4.70;;;2.00;;
47153;SDS011;32907;41.412;2.164;2024-02-26T10:37:46;5.00;;;2.13;;
47153;SDS011;32907;41.412;2.164;2024-02-26T10:40:15;3.30;;;1.67;;
47153;SDS011;32907;41.412;2.164;2024-02-26T10:42:45;9.15;;;1.88;;
47153;SDS011;32907;41.412;2.164;2024-02-26T10:45:13;5.05;;;1.60;;
47153;SDS011;32907;41.412;2.164;2024-02-26T10:47:42;4.53;;;1.30;;
47153;SDS011;32907;41.412;2.164;2024-02-26T10:50:10;2.97;;;1.35;;
47153;SDS011;32907;41.412;2.164;2024-02-26T10:52:42;4.68;;;1.58;;
47153;SDS011;32907;41.412;2.164;2024-02-26T10:55:13;5.43;;;1.48;;
47153;SDS011;32907;41.412;2.164;2024-02-26T10:57:47;4.30;;;1.20;;
47153;SDS011;32907;41.412;2.164;2024-02-26T11:00:18;4.15;;;1.20;;
47153;SDS011;32907;41.412;2.164;2024-02-26T11:02:46;3.92;;;1.00;;
47153;SDS011;32907;41.412;2.164;2024-02-26T11:05:16;3.10;;;1.20;;
47153;SDS011;32907;41.412;2.164;2024-02-26T11:07:45;6.88;;;1.58;;
47153;SDS011;32907;41.412;2.164;2024-02-26T11:10:15;5.45;;;1.08;;
47153;SDS011;32907;41.412;2.164;2024-02-26T11:12:45;4.20;;;1.13;;
47153;SDS011;32907;41.412;2.164;2024-02-26T11:15:14;3.42;;;1.25;;
47153;SDS011;32907;41.412;2.164;2024-02-26T11:17:44;3.53;;;1.30;;
47153;SDS011;32907;41.412;2.164;2024-02-26T11:20:16;3.95;;;1.35;;
47153;SDS011;32907;41.412;2.164;2024-02-26T11:22:47;4.20;;;1.38;;
47153;SDS011;32907;41.412;2.164;2024-02-26T11:25:16;2.72;;;0.82;;
47153;SDS011;32907;41.412;2.164;2024-02-26T11:27:52;2.65;;;1.10;;
47153;SDS011;32907;41.412;2.164;2024-02-26T11:30:28;3.08;;;1.23;;
47153;SDS011;32907;41.412;2.164;2024-02-26T11:33:00;5.45;;;3.08;;
47153;SDS011;32907;41.412;2.164;2024-02-26T11:35:29;8.52;;;6.63;;
47153;SDS011;32907;41.412;2.164;2024-02-26T11:37:57;9.93;;;6.93;;
47153;SDS011;32907;41.412;2.164;2024-02-26T11:40:26;8.50;;;6.05;;
47153;SDS011;32907;41.412;2.164;2024-02-26T11:42:55;8.00;;;4.45;;
47153;SDS011;32907;41.412;2.164;2024-02-26T11:48:12;3.85;;;2.00;;
47153;SDS011;32907;41.412;2.164;2024-02-26T11:50:45;7.32;;;2.90;;
47153;SDS011;32907;41.412;2.164;2024-02-26T11:53:22;5.20;;;2.08;;
47153;SDS011;32907;41.412;2.164;2024-02-26T11:58:47;3.13;;;1.50;;
47153;SDS011;32907;41.412;2.164;2024-02-26T12:04:11;10.88;;;2.90;;
47153;SDS011;32907;41.412;2.164;2024-02-26T12:06:51;5.15;;;2.67;;
47153;SDS011;32907;41.412;2.164;2024-02-26T12:09:39;4.38;;;2.53;;
47153;SDS011;32907;41.412;2.164;2024-02-26T12:12:09;5.05;;;3.22;;
47153;SDS011;32907;41.412;2.164;2024-02-26T12:14:51;5.72;;;3.28;;
47153;SDS011;32907;41.412;2.164;2024-02-26T12:17:25;7.10;;;2.70;;
47153;SDS011;32907;41.412;2.164;2024-02-26T12:19:53;9.07;;;2.83;;
47153;SDS011;32907;41.412;2.164;2024-02-26T12:22:23;5.68;;;2.47;;
47153;SDS011;32907;41.412;2.164;2024-02-26T12:24:59;7.22;;;2.28;;
47153;SDS011;32907;41.412;2.164;2024-02-26T12:27:29;6.07;;;1.77;;
47153;SDS011;32907;41.412;2.164;2024-02-26T12:29:57;3.85;;;1.60;;
47153;SDS011;32907;41.412;2.164;2024-02-26T12:32:26;6.53;;;1.40;;
47153;SDS011;32907;41.412;2.164;2024-02-26T12:34:54;2.88;;;1.40;;
47153;SDS011;32907;41.412;2.164;2024-02-26T12:37:23;5.82;;;1.40;;
47153;SDS011;32907;41.412;2.164;2024-02-26T12:39:52;8.15;;;2.00;;
47153;SDS011;32907;41.412;2.164;2024-02-26T12:42:20;5.90;;;2.10;;
47153;SDS011;32907;41.412;2.164;2024-02-26T12:44:49;9.85;;;3.05;;
47153;SDS011;32907;41.412;2.164;2024-02-26T12:47:19;9.50;;;3.45;;
47153;SDS011;32907;41.412;2.164;2024-02-26T12:49:48;13.20;;;5.80;;
47153;SDS011;32907;41.412;2.164;2024-02-26T12:52:17;56.05;;;26.02;;
47153;SDS011;32907;41.412;2.164;2024-02-26T12:54:45;117.22;;;62.03;;
47153;SDS011;32907;41.412;2.164;2024-02-26T12:57:14;71.47;;;41.85;;
47153;SDS011;32907;41.412;2.164;2024-02-26T12:59:44;59.47;;;32.60;;
47153;SDS011;32907;41.412;2.164;2024-02-26T13:02:17;40.65;;;27.45;;
47153;SDS011;32907;41.412;2.164;2024-02-26T13:04:46;44.83;;;28.30;;
47153;SDS011;32907;41.412;2.164;2024-02-26T13:07:14;37.50;;;21.98;;
47153;SDS011;32907;41.412;2.164;2024-02-26T13:09:43;30.92;;;19.50;;
47153;SDS011;32907;41.412;2.164;2024-02-26T13:12:12;33.00;;;19.17;;
47153;SDS011;32907;41.412;2.164;2024-02-26T13:14:42;22.92;;;14.98;;
47153;SDS011;32907;41.412;2.164;2024-02-26T13:17:10;29.48;;;15.65;;
47153;SDS011;32907;41.412;2.164;2024-02-26T13:19:48;36.55;;;20.33;;
47153;SDS011;32907;41.412;2.164;2024-02-26T13:22:20;35.70;;;18.73;;
47153;SDS011;32907;41.412;2.164;2024-02-26T13:24:56;42.25;;;18.98;;
47153;SDS011;32907;41.412;2.164;2024-02-26T13:27:25;29.35;;;14.43;;
47153;SDS011;32907;41.412;2.164;2024-02-26T13:30:04;17.13;;;9.82;;
47153;SDS011;32907;41.412;2.164;2024-02-26T13:32:40;16.42;;;9.15;;
47153;SDS011;32907;41.412;2.164;2024-02-26T13:35:12;13.18;;;8.13;;
47153;SDS011;32907;41.412;2.164;2024-02-26T13:37:41;12.52;;;7.03;;
47153;SDS011;32907;41.412;2.164;2024-02-26T13:40:10;13.30;;;7.32;;
47153;SDS011;32907;41.412;2.164;2024-02-26T13:42:39;10.77;;;5.35;;
47153;SDS011;32907;41.412;2.164;2024-02-26T13:45:08;9.38;;;4.32;;
47153;SDS011;32907;41.412;2.164;2024-02-26T13:47:38;9.13;;;4.03;;
47153;SDS011;32907;41.412;2.164;2024-02-26T13:50:06;6.78;;;3.90;;
47153;SDS011;32907;41.412;2.164;2024-02-26T13:52:35;9.57;;;3.60;;
47153;SDS011;32907;41.412;2.164;2024-02-26T13:55:04;6.72;;;3.50;;
47153;SDS011;32907;41.412;2.164;2024-02-26T13:57:32;7.13;;;3.55;;
47153;SDS011;32907;41.412;2.164;2024-02-26T14:00:01;9.10;;;3.05;;
47153;SDS011;32907;41.412;2.164;2024-02-26T14:02:38;9.27;;;3.45;;
47153;SDS011;32907;41.412;2.164;2024-02-26T14:05:06;8.32;;;3.58;;
47153;SDS011;32907;41.412;2.164;2024-02-26T14:07:35;6.80;;;2.92;;
47153;SDS011;32907;41.412;2.164;2024-02-26T14:10:04;6.65;;;2.50;;
47153;SDS011;32907;41.412;2.164;2024-02-26T14:12:33;5.13;;;2.20;;
47153;SDS011;32907;41.412;2.164;2024-02-26T14:15:01;6.15;;;2.53;;
47153;SDS011;32907;41.412;2.164;2024-02-26T14:17:32;7.53;;;3.22;;
47153;SDS011;32907;41.412;2.164;2024-02-26T14:20:02;14.48;;;10.02;;
47153;SDS011;32907;41.412;2.164;2024-02-26T14:22:31;9.77;;;4.97;;
47153;SDS011;32907;41.412;2.164;2024-02-26T14:24:59;12.50;;;6.88;;
47153;SDS011;32907;41.412;2.164;2024-02-26T14:27:28;9.55;;;4.40;;
47153;SDS011;32907;41.412;2.164;2024-02-26T14:29:56;13.40;;;9.95;;
47153;SDS011;32907;41.412;2.164;2024-02-26T14:32:25;22.85;;;16.58;;
47153;SDS011;32907;41.412;2.164;2024-02-26T14:34:53;24.38;;;18.70;;
47153;SDS011;32907;41.412;2.164;2024-02-26T14:37:24;23.38;;;16.65;;
47153;SDS011;32907;41.412;2.164;2024-02-26T14:39:52;18.05;;;13.85;;
47153;SDS011;32907;41.412;2.164;2024-02-26T14:42:21;12.77;;;9.70;;
47153;SDS011;32907;41.412;2.164;2024-02-26T14:44:52;12.05;;;7.97;;
47153;SDS011;32907;41.412;2.164;2024-02-26T14:47:21;12.43;;;7.03;;
47153;SDS011;32907;41.412;2.164;2024-02-26T14:49:49;9.30;;;5.00;;
47153;SDS011;32907;41.412;2.164;2024-02-26T14:52:19;10.68;;;5.97;;
47153;SDS011;32907;41.412;2.164;2024-02-26T14:54:48;7.22;;;4.25;;
47153;SDS011;32907;41.412;2.164;2024-02-26T14:57:18;5.10;;;2.20;;
47153;SDS011;32907;41.412;2.164;2024-02-26T14:59:46;6.50;;;2.45;;
47153;SDS011;32907;41.412;2.164;2024-02-26T15:02:15;9.00;;;1.85;;
47153;SDS011;32907;41.412;2.164;2024-02-26T15:04:43;6.80;;;1.63;;